createdAt,value
2022-10-15T00:00:28.146Z,0.89
2022-10-15T00:05:50.359Z,0.89
2022-10-15T00:11:17.810Z,0.85
2022-10-15T00:16:44.266Z,0.83
2022-10-15T00:22:12.005Z,0.90
2022-10-15T00:27:39.605Z,0.81
2022-10-15T00:33:05.138Z,0.89
2022-10-15T00:39:30.079Z,1.44
2022-10-15T00:44:52.125Z,1.54
2022-10-15T00:50:16.143Z,1.39
2022-10-15T00:55:42.745Z,1.74
2022-10-15T01:01:04.189Z,2.16
2022-10-15T01:06:30.137Z,2.26
2022-10-15T01:11:52.000Z,2.01
2022-10-15T01:17:19.438Z,1.99
2022-10-15T01:22:46.114Z,1.95
2022-10-15T01:28:10.710Z,2.15
2022-10-15T01:33:38.007Z,2.36
2022-10-15T01:39:05.536Z,2.45
2022-10-15T01:44:30.944Z,2.92
2022-10-15T01:49:57.819Z,2.99
2022-10-15T01:55:23.404Z,3.01
2022-10-15T02:00:51.117Z,3.21
2022-10-15T02:06:16.740Z,3.11
2022-10-15T02:11:42.254Z,2.70
2022-10-15T02:17:11.299Z,3.43
2022-10-15T02:22:38.565Z,3.03
2022-10-15T02:28:06.139Z,3.16
2022-10-15T02:33:31.795Z,3.44
2022-10-15T02:38:53.489Z,3.33
2022-10-15T02:44:19.049Z,3.19
2022-10-15T02:49:46.207Z,3.43
2022-10-15T02:55:10.968Z,3.19
2022-10-15T03:00:38.440Z,3.41
2022-10-15T03:06:03.190Z,3.12
2022-10-15T03:11:25.478Z,3.27
2022-10-15T03:16:52.050Z,3.16
2022-10-15T03:22:18.664Z,2.65
2022-10-15T03:27:44.060Z,2.43
2022-10-15T03:33:08.858Z,2.31
2022-10-15T03:38:35.792Z,2.19
2022-10-15T03:44:02.990Z,1.91
2022-10-15T03:49:30.560Z,1.75
2022-10-15T03:55:00.033Z,1.67
2022-10-15T04:00:27.782Z,1.85
2022-10-15T04:05:57.667Z,1.75
2022-10-15T04:11:22.125Z,1.64
2022-10-15T04:16:47.155Z,1.82
2022-10-15T04:22:11.286Z,2.10
2022-10-15T04:27:39.300Z,2.10
2022-10-15T04:33:06.894Z,2.28
2022-10-15T04:38:34.735Z,2.37
2022-10-15T04:43:59.710Z,2.04
2022-10-15T04:49:28.260Z,2.56
2022-10-15T04:54:53.287Z,2.54
2022-10-15T05:00:21.103Z,2.44
2022-10-15T05:05:48.171Z,2.71
2022-10-15T05:11:14.092Z,2.87
2022-10-15T05:16:36.450Z,2.60
2022-10-15T05:22:03.849Z,2.54
2022-10-15T05:27:30.583Z,2.55
2022-10-15T05:32:55.918Z,2.54
2022-10-15T05:38:23.258Z,2.83
2022-10-15T05:43:49.760Z,3.27
2022-10-15T05:49:13.523Z,3.26
2022-10-15T05:54:41.793Z,2.93
2022-10-15T06:00:07.598Z,3.02
2022-10-15T06:05:31.499Z,2.64
2022-10-15T06:10:58.825Z,2.46
2022-10-15T06:16:23.950Z,2.09
2022-10-15T06:21:49.717Z,2.09
2022-10-15T06:27:16.207Z,2.12
2022-10-15T06:32:44.212Z,2.04
2022-10-15T06:38:58.365Z,2.45
2022-10-15T06:57:27.576Z,1.39
2022-10-15T07:03:36.824Z,1.09
2022-10-15T07:15:44.359Z,0.83
2022-10-15T07:21:08.683Z,0.89
2022-10-15T07:26:35.069Z,0.88
2022-10-15T07:32:02.840Z,1.08
2022-10-15T07:37:29.999Z,1.12
2022-10-15T07:42:53.517Z,1.53
2022-10-15T07:48:21.415Z,1.79
2022-10-15T07:53:46.204Z,1.81
2022-10-15T07:59:13.300Z,2.19
2022-10-15T08:04:40.083Z,1.97
2022-10-15T08:10:05.399Z,2.83
2022-10-15T08:15:32.897Z,1.96
2022-10-15T08:21:02.279Z,2.04
2022-10-15T08:26:27.083Z,2.01
2022-10-15T08:31:52.880Z,1.89
2022-10-15T08:37:18.801Z,1.72
2022-10-15T08:42:46.038Z,1.84
2022-10-15T08:48:17.358Z,1.81
2022-10-15T08:53:42.153Z,1.53
2022-10-15T08:59:09.401Z,1.60
2022-10-15T09:04:39.649Z,1.71
2022-10-15T09:10:08.192Z,1.39
2022-10-15T09:15:34.291Z,1.34
2022-10-15T09:20:56.961Z,1.71
2022-10-15T09:26:23.205Z,1.77
2022-10-15T09:31:52.931Z,2.61
2022-10-15T09:37:19.997Z,2.25
2022-10-15T09:42:45.745Z,2.65
2022-10-15T09:48:12.554Z,2.49
2022-10-15T09:53:39.087Z,2.72
2022-10-15T09:59:09.626Z,2.03
2022-10-15T10:04:38.386Z,2.13
2022-10-15T10:10:03.794Z,1.91
2022-10-15T10:15:37.753Z,1.89
2022-10-15T10:21:05.092Z,1.80
2022-10-15T10:26:37.818Z,1.71
2022-10-15T10:32:03.274Z,1.85
2022-10-15T10:43:23.537Z,2.15
2022-10-15T10:49:15.785Z,2.10
2022-10-15T10:54:56.518Z,1.95
2022-10-15T11:00:29.740Z,1.64
2022-10-15T11:09:22.899Z,1.77
2022-10-15T11:15:09.958Z,1.30
2022-10-15T11:37:03.828Z,0.59
2022-10-15T11:42:49.404Z,0.77
2022-10-15T11:48:17.286Z,0.45
2022-10-15T11:53:44.344Z,0.49
2022-10-15T11:59:13.102Z,0.72
2022-10-15T12:04:39.249Z,1.50
2022-10-15T12:10:28.721Z,0.68
2022-10-15T12:37:04.009Z,0.53
2022-10-15T13:07:09.024Z,0.25
2022-10-15T13:27:06.347Z,0.64
2022-10-15T13:54:46.637Z,0.37
2022-10-15T14:00:14.652Z,0.17
2022-10-15T14:05:46.407Z,0.29
2022-10-15T14:11:10.235Z,0.34
2022-10-15T14:16:48.734Z,0.31
2022-10-15T15:04:04.043Z,0.28
2022-10-15T15:28:38.572Z,0.45
2022-10-15T15:58:24.973Z,0.57
2022-10-15T16:03:50.717Z,0.67
2022-10-15T16:09:17.662Z,0.61
2022-10-15T16:27:03.392Z,0.48
2022-10-15T16:32:32.335Z,0.48
2022-10-15T16:37:59.277Z,0.36
2022-10-15T16:43:24.882Z,0.60
2022-10-15T16:48:57.182Z,0.48
2022-10-15T16:54:23.778Z,0.53
2022-10-15T16:59:50.663Z,0.59
2022-10-15T17:05:17.477Z,0.64
2022-10-15T17:10:43.152Z,0.51
2022-10-15T17:16:05.274Z,0.51
2022-10-15T17:21:29.684Z,0.57
2022-10-15T17:26:56.848Z,0.49
2022-10-15T17:32:25.580Z,0.39
2022-10-15T17:37:52.616Z,0.49
2022-10-15T17:43:17.087Z,0.42
2022-10-15T17:48:41.694Z,0.48
2022-10-15T17:54:05.418Z,0.46
2022-10-15T17:59:32.316Z,0.50
2022-10-15T18:04:56.085Z,0.43
2022-10-15T18:10:22.845Z,0.50
2022-10-15T18:15:49.143Z,1.14
2022-10-15T18:21:16.653Z,0.61
2022-10-15T18:26:40.464Z,0.64
2022-10-15T18:32:07.415Z,0.55
2022-10-15T18:37:35.123Z,0.60
2022-10-15T18:43:02.439Z,0.54
2022-10-15T18:48:32.830Z,0.48
2022-10-15T18:53:55.291Z,0.71
2022-10-15T18:59:22.560Z,0.55
2022-10-15T19:04:48.529Z,0.63
2022-10-15T19:10:19.116Z,0.65
2022-10-15T19:15:38.043Z,0.96
2022-10-15T19:21:04.419Z,0.58
2022-10-15T19:26:27.374Z,0.59
2022-10-15T19:31:48.631Z,0.56
2022-10-15T19:37:19.486Z,0.67
2022-10-15T19:42:44.640Z,0.56
2022-10-15T19:48:06.340Z,0.78
2022-10-15T19:53:32.499Z,1.93
2022-10-15T19:58:57.790Z,0.65
2022-10-15T20:04:21.800Z,0.67
2022-10-15T20:09:44.895Z,0.63
2022-10-15T20:15:08.530Z,0.74
2022-10-15T20:20:30.414Z,0.79
2022-10-15T20:25:52.943Z,0.93
2022-10-15T20:31:19.268Z,0.74
2022-10-15T20:36:46.862Z,0.70
2022-10-15T20:42:15.599Z,0.70
2022-10-15T20:47:43.675Z,0.89
2022-10-15T20:53:07.849Z,1.01
2022-10-15T20:58:35.465Z,0.95
2022-10-15T21:04:03.466Z,1.25
2022-10-15T21:09:27.583Z,1.39
2022-10-15T21:14:49.488Z,1.64
2022-10-15T21:20:16.275Z,4.53
2022-10-15T21:25:42.077Z,2.18
2022-10-15T21:31:06.977Z,1.70
2022-10-15T21:36:33.409Z,1.75
2022-10-15T21:41:57.307Z,1.44
2022-10-15T21:47:18.840Z,1.04
2022-10-15T21:52:42.480Z,1.12
2022-10-15T21:58:09.568Z,1.24
2022-10-15T22:03:36.605Z,1.09
2022-10-15T22:09:04.230Z,1.24
2022-10-15T22:14:28.891Z,1.37
2022-10-15T22:19:56.933Z,1.14
2022-10-15T22:25:25.531Z,0.91
2022-10-15T22:30:52.096Z,1.10
2022-10-15T22:36:21.675Z,1.12
2022-10-15T22:41:48.539Z,0.98
2022-10-15T22:47:14.569Z,1.05
2022-10-15T22:52:39.262Z,0.99
2022-10-15T22:58:06.809Z,1.03
2022-10-15T23:03:34.251Z,1.12
2022-10-15T23:09:02.131Z,1.05
2022-10-15T23:14:30.554Z,1.10
2022-10-15T23:19:58.185Z,0.93
2022-10-15T23:25:22.290Z,0.99
2022-10-15T23:30:48.988Z,1.24
2022-10-15T23:36:16.507Z,1.47
2022-10-15T23:41:38.108Z,1.31
2022-10-15T23:47:00.653Z,1.07
2022-10-15T23:52:25.011Z,1.18
2022-10-15T23:57:47.190Z,0.78
